sensor_id;sensor_type;location;lat;lon;timestamp;P1;durP1;ratioP1;P2;durP2;ratioP2
22144;SDS011;11238;48.730;11.566;2023-08-24T00:00:53;6.35;;;5.57;;
22144;SDS011;11238;48.730;11.566;2023-08-24T00:03:19;12.30;;;5.93;;
22144;SDS011;11238;48.730;11.566;2023-08-24T00:05:47;7.78;;;5.78;;
22144;SDS011;11238;48.730;11.566;2023-08-24T00:08:13;9.55;;;7.40;;
22144;SDS011;11238;48.730;11.566;2023-08-24T00:10:38;7.40;;;6.57;;
22144;SDS011;11238;48.730;11.566;2023-08-24T00:13:04;7.82;;;6.55;;
22144;SDS011;11238;48.730;11.566;2023-08-24T00:15:31;8.13;;;6.47;;
22144;SDS011;11238;48.730;11.566;2023-08-24T00:17:57;9.40;;;6.25;;
22144;SDS011;11238;48.730;11.566;2023-08-24T00:20:22;9.20;;;6.38;;
22144;SDS011;11238;48.730;11.566;2023-08-24T00:22:48;10.93;;;7.38;;
22144;SDS011;11238;48.730;11.566;2023-08-24T00:25:14;6.97;;;6.38;;
22144;SDS011;11238;48.730;11.566;2023-08-24T00:27:40;7.78;;;6.63;;
22144;SDS011;11238;48.730;11.566;2023-08-24T00:30:07;7.43;;;6.60;;
22144;SDS011;11238;48.730;11.566;2023-08-24T00:32:33;8.30;;;6.80;;
22144;SDS011;11238;48.730;11.566;2023-08-24T00:35:04;9.95;;;6.95;;
22144;SDS011;11238;48.730;11.566;2023-08-24T00:37:35;8.77;;;6.72;;
22144;SDS011;11238;48.730;11.566;2023-08-24T00:40:03;7.25;;;6.50;;
22144;SDS011;11238;48.730;11.566;2023-08-24T00:42:33;9.18;;;6.82;;
22144;SDS011;11238;48.730;11.566;2023-08-24T00:45:01;8.30;;;7.50;;
22144;SDS011;11238;48.730;11.566;2023-08-24T00:47:29;8.73;;;7.38;;
22144;SDS011;11238;48.730;11.566;2023-08-24T00:49:55;10.48;;;7.45;;
22144;SDS011;11238;48.730;11.566;2023-08-24T00:52:21;8.60;;;7.10;;
22144;SDS011;11238;48.730;11.566;2023-08-24T00:54:47;8.38;;;7.55;;
22144;SDS011;11238;48.730;11.566;2023-08-24T00:57:13;8.93;;;7.32;;
22144;SDS011;11238;48.730;11.566;2023-08-24T00:59:39;10.25;;;8.13;;
22144;SDS011;11238;48.730;11.566;2023-08-24T01:02:05;11.10;;;8.52;;
22144;SDS011;11238;48.730;11.566;2023-08-24T01:04:32;10.00;;;7.70;;
22144;SDS011;11238;48.730;11.566;2023-08-24T01:06:57;11.20;;;8.52;;
22144;SDS011;11238;48.730;11.566;2023-08-24T01:09:23;11.05;;;7.47;;
22144;SDS011;11238;48.730;11.566;2023-08-24T01:12:04;9.60;;;7.97;;
22144;SDS011;11238;48.730;11.566;2023-08-24T01:14:43;8.75;;;7.82;;
22144;SDS011;11238;48.730;11.566;2023-08-24T01:17:21;11.07;;;8.10;;
22144;SDS011;11238;48.730;11.566;2023-08-24T01:19:49;10.10;;;8.68;;
22144;SDS011;11238;48.730;11.566;2023-08-24T01:25:16;10.40;;;8.20;;
22144;SDS011;11238;48.730;11.566;2023-08-24T01:27:46;9.00;;;8.20;;
22144;SDS011;11238;48.730;11.566;2023-08-24T01:30:14;9.70;;;8.27;;
22144;SDS011;11238;48.730;11.566;2023-08-24T01:32:41;9.63;;;8.63;;
22144;SDS011;11238;48.730;11.566;2023-08-24T01:35:08;8.43;;;7.63;;
22144;SDS011;11238;48.730;11.566;2023-08-24T01:37:36;9.30;;;8.02;;
22144;SDS011;11238;48.730;11.566;2023-08-24T01:40:23;10.20;;;8.02;;
22144;SDS011;11238;48.730;11.566;2023-08-24T01:43:05;13.70;;;7.65;;
22144;SDS011;11238;48.730;11.566;2023-08-24T01:45:35;9.63;;;7.60;;
22144;SDS011;11238;48.730;11.566;2023-08-24T01:48:01;11.20;;;8.23;;
22144;SDS011;11238;48.730;11.566;2023-08-24T01:50:29;14.43;;;8.02;;
22144;SDS011;11238;48.730;11.566;2023-08-24T01:52:56;9.57;;;8.10;;
22144;SDS011;11238;48.730;11.566;2023-08-24T01:55:24;9.77;;;7.70;;
22144;SDS011;11238;48.730;11.566;2023-08-24T01:57:51;8.18;;;7.38;;
22144;SDS011;11238;48.730;11.566;2023-08-24T02:00:16;11.73;;;8.00;;
22144;SDS011;11238;48.730;11.566;2023-08-24T02:02:45;9.48;;;7.93;;
22144;SDS011;11238;48.730;11.566;2023-08-24T02:05:12;9.18;;;7.95;;
22144;SDS011;11238;48.730;11.566;2023-08-24T02:07:38;12.05;;;8.05;;
22144;SDS011;11238;48.730;11.566;2023-08-24T02:10:06;9.88;;;7.60;;
22144;SDS011;11238;48.730;11.566;2023-08-24T02:12:32;8.23;;;7.38;;
22144;SDS011;11238;48.730;11.566;2023-08-24T02:14:58;9.15;;;8.20;;
22144;SDS011;11238;48.730;11.566;2023-08-24T02:17:24;10.88;;;7.88;;
22144;SDS011;11238;48.730;11.566;2023-08-24T02:19:51;8.68;;;7.88;;
22144;SDS011;11238;48.730;11.566;2023-08-24T02:22:17;8.93;;;7.43;;
22144;SDS011;11238;48.730;11.566;2023-08-24T02:24:43;8.82;;;7.97;;
22144;SDS011;11238;48.730;11.566;2023-08-24T02:27:09;9.00;;;8.05;;
22144;SDS011;11238;48.730;11.566;2023-08-24T02:29:35;9.63;;;7.90;;
22144;SDS011;11238;48.730;11.566;2023-08-24T02:32:02;14.85;;;8.30;;
22144;SDS011;11238;48.730;11.566;2023-08-24T02:34:28;8.98;;;8.18;;
22144;SDS011;11238;48.730;11.566;2023-08-24T02:36:56;10.32;;;8.18;;
22144;SDS011;11238;48.730;11.566;2023-08-24T02:39:22;9.57;;;8.45;;
22144;SDS011;11238;48.730;11.566;2023-08-24T02:41:48;8.65;;;7.72;;
22144;SDS011;11238;48.730;11.566;2023-08-24T02:44:14;12.02;;;8.57;;
22144;SDS011;11238;48.730;11.566;2023-08-24T02:46:43;9.93;;;8.65;;
22144;SDS011;11238;48.730;11.566;2023-08-24T02:49:10;9.55;;;8.43;;
22144;SDS011;11238;48.730;11.566;2023-08-24T02:51:35;9.00;;;8.07;;
22144;SDS011;11238;48.730;11.566;2023-08-24T02:54:01;9.00;;;8.18;;
22144;SDS011;11238;48.730;11.566;2023-08-24T02:56:27;9.40;;;8.43;;
22144;SDS011;11238;48.730;11.566;2023-08-24T02:58:53;10.23;;;8.77;;
22144;SDS011;11238;48.730;11.566;2023-08-24T03:01:19;9.73;;;8.70;;
22144;SDS011;11238;48.730;11.566;2023-08-24T03:03:45;9.63;;;8.15;;
22144;SDS011;11238;48.730;11.566;2023-08-24T03:06:10;9.57;;;8.57;;
22144;SDS011;11238;48.730;11.566;2023-08-24T03:08:36;8.98;;;8.07;;
22144;SDS011;11238;48.730;11.566;2023-08-24T03:11:03;13.02;;;8.38;;
22144;SDS011;11238;48.730;11.566;2023-08-24T03:13:30;9.98;;;8.30;;
22144;SDS011;11238;48.730;11.566;2023-08-24T03:15:56;9.30;;;7.70;;
22144;SDS011;11238;48.730;11.566;2023-08-24T03:18:25;9.27;;;8.00;;
22144;SDS011;11238;48.730;11.566;2023-08-24T03:20:51;9.30;;;8.25;;
22144;SDS011;11238;48.730;11.566;2023-08-24T03:23:18;11.90;;;8.50;;
22144;SDS011;11238;48.730;11.566;2023-08-24T03:25:44;9.05;;;8.15;;
22144;SDS011;11238;48.730;11.566;2023-08-24T03:28:10;9.88;;;7.70;;
22144;SDS011;11238;48.730;11.566;2023-08-24T03:30:37;8.77;;;7.78;;
22144;SDS011;11238;48.730;11.566;2023-08-24T03:33:04;10.00;;;7.18;;
22144;SDS011;11238;48.730;11.566;2023-08-24T03:35:31;15.00;;;8.02;;
22144;SDS011;11238;48.730;11.566;2023-08-24T03:37:58;8.85;;;7.90;;
22144;SDS011;11238;48.730;11.566;2023-08-24T03:40:24;9.40;;;8.40;;
22144;SDS011;11238;48.730;11.566;2023-08-24T03:42:50;10.02;;;9.00;;
22144;SDS011;11238;48.730;11.566;2023-08-24T03:45:17;11.50;;;8.50;;
22144;SDS011;11238;48.730;11.566;2023-08-24T03:47:44;9.38;;;8.45;;
22144;SDS011;11238;48.730;11.566;2023-08-24T03:50:10;8.63;;;7.80;;
22144;SDS011;11238;48.730;11.566;2023-08-24T03:52:36;8.48;;;7.72;;
22144;SDS011;11238;48.730;11.566;2023-08-24T03:55:02;10.50;;;8.45;;
22144;SDS011;11238;48.730;11.566;2023-08-24T03:57:28;8.73;;;7.82;;
22144;SDS011;11238;48.730;11.566;2023-08-24T03:59:53;10.88;;;8.75;;
22144;SDS011;11238;48.730;11.566;2023-08-24T04:02:20;7.57;;;6.88;;
22144;SDS011;11238;48.730;11.566;2023-08-24T04:04:46;10.65;;;7.70;;
22144;SDS011;11238;48.730;11.566;2023-08-24T04:07:12;9.90;;;7.68;;
22144;SDS011;11238;48.730;11.566;2023-08-24T04:09:38;12.88;;;7.82;;
22144;SDS011;11238;48.730;11.566;2023-08-24T04:12:04;10.10;;;8.60;;
22144;SDS011;11238;48.730;11.566;2023-08-24T04:14:30;10.20;;;8.10;;
22144;SDS011;11238;48.730;11.566;2023-08-24T04:16:55;10.63;;;8.60;;
22144;SDS011;11238;48.730;11.566;2023-08-24T04:19:21;9.38;;;8.00;;
22144;SDS011;11238;48.730;11.566;2023-08-24T04:21:47;10.88;;;7.95;;
22144;SDS011;11238;48.730;11.566;2023-08-24T04:24:12;8.82;;;8.02;;
22144;SDS011;11238;48.730;11.566;2023-08-24T04:26:39;8.40;;;7.57;;
22144;SDS011;11238;48.730;11.566;2023-08-24T04:29:05;10.88;;;7.75;;
22144;SDS011;11238;48.730;11.566;2023-08-24T04:31:30;9.38;;;7.63;;
22144;SDS011;11238;48.730;11.566;2023-08-24T04:33:56;9.43;;;7.95;;
22144;SDS011;11238;48.730;11.566;2023-08-24T04:36:22;13.70;;;7.68;;
22144;SDS011;11238;48.730;11.566;2023-08-24T04:38:48;13.57;;;8.40;;
22144;SDS011;11238;48.730;11.566;2023-08-24T04:41:14;9.20;;;7.53;;
22144;SDS011;11238;48.730;11.566;2023-08-24T04:43:39;12.40;;;7.50;;
22144;SDS011;11238;48.730;11.566;2023-08-24T04:46:05;9.20;;;7.57;;
22144;SDS011;11238;48.730;11.566;2023-08-24T04:48:31;9.10;;;7.97;;
22144;SDS011;11238;48.730;11.566;2023-08-24T04:51:00;8.98;;;8.13;;
22144;SDS011;11238;48.730;11.566;2023-08-24T04:53:26;8.88;;;7.95;;
22144;SDS011;11238;48.730;11.566;2023-08-24T04:55:53;8.88;;;7.97;;
22144;SDS011;11238;48.730;11.566;2023-08-24T04:58:19;10.07;;;8.68;;
22144;SDS011;11238;48.730;11.566;2023-08-24T05:00:44;12.63;;;9.25;;
22144;SDS011;11238;48.730;11.566;2023-08-24T05:03:10;10.40;;;9.20;;
22144;SDS011;11238;48.730;11.566;2023-08-24T05:05:58;11.52;;;9.50;;
22144;SDS011;11238;48.730;11.566;2023-08-24T05:08:26;11.43;;;8.75;;
22144;SDS011;11238;48.730;11.566;2023-08-24T05:10:52;13.05;;;10.05;;
22144;SDS011;11238;48.730;11.566;2023-08-24T05:13:20;13.70;;;9.48;;
22144;SDS011;11238;48.730;11.566;2023-08-24T05:15:45;12.68;;;9.23;;
22144;SDS011;11238;48.730;11.566;2023-08-24T05:18:12;12.25;;;9.23;;
22144;SDS011;11238;48.730;11.566;2023-08-24T05:20:38;18.55;;;9.60;;
22144;SDS011;11238;48.730;11.566;2023-08-24T05:23:03;9.88;;;8.88;;
22144;SDS011;11238;48.730;11.566;2023-08-24T05:25:50;12.73;;;8.70;;
22144;SDS011;11238;48.730;11.566;2023-08-24T05:28:16;10.48;;;9.45;;
22144;SDS011;11238;48.730;11.566;2023-08-24T05:30:42;12.20;;;8.50;;
22144;SDS011;11238;48.730;11.566;2023-08-24T05:33:08;11.52;;;9.13;;
22144;SDS011;11238;48.730;11.566;2023-08-24T05:35:34;9.57;;;7.78;;
22144;SDS011;11238;48.730;11.566;2023-08-24T05:38:00;9.88;;;8.70;;
22144;SDS011;11238;48.730;11.566;2023-08-24T05:40:26;12.02;;;8.25;;
22144;SDS011;11238;48.730;11.566;2023-08-24T05:42:52;9.00;;;7.10;;
22144;SDS011;11238;48.730;11.566;2023-08-24T05:45:18;8.27;;;6.57;;
22144;SDS011;11238;48.730;11.566;2023-08-24T05:47:44;10.70;;;7.07;;
22144;SDS011;11238;48.730;11.566;2023-08-24T05:50:10;7.05;;;6.20;;
22144;SDS011;11238;48.730;11.566;2023-08-24T05:52:36;8.18;;;6.60;;
22144;SDS011;11238;48.730;11.566;2023-08-24T05:55:02;10.52;;;7.97;;
22144;SDS011;11238;48.730;11.566;2023-08-24T05:57:28;11.30;;;7.10;;
22144;SDS011;11238;48.730;11.566;2023-08-24T05:59:54;12.20;;;7.20;;
22144;SDS011;11238;48.730;11.566;2023-08-24T06:02:20;12.38;;;6.90;;
22144;SDS011;11238;48.730;11.566;2023-08-24T06:09:02;15.30;;;8.27;;
22144;SDS011;11238;48.730;11.566;2023-08-24T06:12:32;10.65;;;7.95;;
22144;SDS011;11238;48.730;11.566;2023-08-24T06:14:58;9.63;;;8.43;;
22144;SDS011;11238;48.730;11.566;2023-08-24T06:17:23;11.70;;;8.38;;
22144;SDS011;11238;48.730;11.566;2023-08-24T06:19:49;11.00;;;8.93;;
22144;SDS011;11238;48.730;11.566;2023-08-24T06:22:15;10.52;;;9.30;;
22144;SDS011;11238;48.730;11.566;2023-08-24T06:24:41;12.63;;;8.95;;
22144;SDS011;11238;48.730;11.566;2023-08-24T06:27:06;10.48;;;9.48;;
22144;SDS011;11238;48.730;11.566;2023-08-24T06:29:32;11.85;;;9.73;;
22144;SDS011;11238;48.730;11.566;2023-08-24T06:31:58;14.35;;;10.68;;
22144;SDS011;11238;48.730;11.566;2023-08-24T06:34:24;15.07;;;10.63;;
22144;SDS011;11238;48.730;11.566;2023-08-24T06:36:50;14.40;;;11.27;;
22144;SDS011;11238;48.730;11.566;2023-08-24T06:39:16;12.43;;;11.13;;
22144;SDS011;11238;48.730;11.566;2023-08-24T06:41:42;11.05;;;9.23;;
22144;SDS011;11238;48.730;11.566;2023-08-24T06:44:07;10.55;;;8.40;;
22144;SDS011;11238;48.730;11.566;2023-08-24T06:46:33;11.48;;;8.93;;
22144;SDS011;11238;48.730;11.566;2023-08-24T06:48:59;13.43;;;7.97;;
22144;SDS011;11238;48.730;11.566;2023-08-24T06:51:25;9.45;;;8.40;;
22144;SDS011;11238;48.730;11.566;2023-08-24T06:53:51;9.20;;;7.65;;
22144;SDS011;11238;48.730;11.566;2023-08-24T06:56:17;9.55;;;8.18;;
22144;SDS011;11238;48.730;11.566;2023-08-24T06:58:44;11.48;;;8.43;;
22144;SDS011;11238;48.730;11.566;2023-08-24T07:01:10;8.38;;;7.05;;
22144;SDS011;11238;48.730;11.566;2023-08-24T07:03:36;13.18;;;7.30;;
22144;SDS011;11238;48.730;11.566;2023-08-24T07:06:05;11.00;;;6.75;;
22144;SDS011;11238;48.730;11.566;2023-08-24T07:08:31;10.38;;;7.13;;
22144;SDS011;11238;48.730;11.566;2023-08-24T07:10:57;12.10;;;6.95;;
22144;SDS011;11238;48.730;11.566;2023-08-24T07:13:23;8.48;;;6.47;;
22144;SDS011;11238;48.730;11.566;2023-08-24T07:15:49;8.48;;;6.07;;
22144;SDS011;11238;48.730;11.566;2023-08-24T07:18:15;10.50;;;5.45;;
22144;SDS011;11238;48.730;11.566;2023-08-24T07:20:40;33.30;;;8.32;;
22144;SDS011;11238;48.730;11.566;2023-08-24T07:23:06;14.73;;;6.55;;
22144;SDS011;11238;48.730;11.566;2023-08-24T07:25:32;12.52;;;7.53;;
22144;SDS011;11238;48.730;11.566;2023-08-24T07:28:00;10.98;;;6.38;;
22144;SDS011;11238;48.730;11.566;2023-08-24T07:30:27;9.20;;;5.72;;
22144;SDS011;11238;48.730;11.566;2023-08-24T07:32:54;8.60;;;6.10;;
22144;SDS011;11238;48.730;11.566;2023-08-24T07:35:20;7.15;;;5.07;;
22144;SDS011;11238;48.730;11.566;2023-08-24T07:37:47;7.97;;;5.57;;
22144;SDS011;11238;48.730;11.566;2023-08-24T07:40:14;7.38;;;5.97;;
22144;SDS011;11238;48.730;11.566;2023-08-24T07:42:46;12.55;;;6.45;;
22144;SDS011;11238;48.730;11.566;2023-08-24T07:45:16;5.65;;;5.10;;
22144;SDS011;11238;48.730;11.566;2023-08-24T07:47:42;9.05;;;5.30;;
22144;SDS011;11238;48.730;11.566;2023-08-24T07:50:09;5.90;;;5.30;;
22144;SDS011;11238;48.730;11.566;2023-08-24T07:52:39;9.13;;;5.95;;
22144;SDS011;11238;48.730;11.566;2023-08-24T07:55:06;8.23;;;5.10;;
22144;SDS011;11238;48.730;11.566;2023-08-24T07:57:35;7.75;;;5.00;;
22144;SDS011;11238;48.730;11.566;2023-08-24T08:00:03;6.70;;;5.35;;
22144;SDS011;11238;48.730;11.566;2023-08-24T08:02:37;11.95;;;5.28;;
22144;SDS011;11238;48.730;11.566;2023-08-24T08:05:03;6.75;;;5.10;;
22144;SDS011;11238;48.730;11.566;2023-08-24T08:07:30;6.63;;;4.80;;
22144;SDS011;11238;48.730;11.566;2023-08-24T08:09:56;5.25;;;4.75;;
22144;SDS011;11238;48.730;11.566;2023-08-24T08:12:23;5.82;;;4.63;;
22144;SDS011;11238;48.730;11.566;2023-08-24T08:14:49;8.68;;;4.60;;
22144;SDS011;11238;48.730;11.566;2023-08-24T08:17:15;9.95;;;4.93;;
22144;SDS011;11238;48.730;11.566;2023-08-24T08:19:41;14.23;;;4.95;;
22144;SDS011;11238;48.730;11.566;2023-08-24T08:22:07;5.55;;;4.70;;
22144;SDS011;11238;48.730;11.566;2023-08-24T08:24:33;7.93;;;4.15;;
22144;SDS011;11238;48.730;11.566;2023-08-24T08:26:59;5.65;;;4.20;;
22144;SDS011;11238;48.730;11.566;2023-08-24T08:29:25;10.57;;;4.75;;
22144;SDS011;11238;48.730;11.566;2023-08-24T08:31:50;4.65;;;3.83;;
22144;SDS011;11238;48.730;11.566;2023-08-24T08:34:16;8.82;;;3.78;;
22144;SDS011;11238;48.730;11.566;2023-08-24T08:36:42;6.43;;;3.55;;
22144;SDS011;11238;48.730;11.566;2023-08-24T08:39:08;5.53;;;3.92;;
22144;SDS011;11238;48.730;11.566;2023-08-24T08:41:38;6.95;;;3.60;;
22144;SDS011;11238;48.730;11.566;2023-08-24T08:44:07;5.38;;;3.80;;
22144;SDS011;11238;48.730;11.566;2023-08-24T08:46:37;9.02;;;3.80;;
22144;SDS011;11238;48.730;11.566;2023-08-24T08:49:04;5.05;;;3.50;;
22144;SDS011;11238;48.730;11.566;2023-08-24T08:51:32;7.03;;;4.00;;
22144;SDS011;11238;48.730;11.566;2023-08-24T08:54:01;4.75;;;3.50;;
22144;SDS011;11238;48.730;11.566;2023-08-24T08:56:29;5.97;;;4.05;;
22144;SDS011;11238;48.730;11.566;2023-08-24T08:58:55;9.13;;;4.20;;
22144;SDS011;11238;48.730;11.566;2023-08-24T09:01:24;7.88;;;3.88;;
22144;SDS011;11238;48.730;11.566;2023-08-24T09:03:50;6.55;;;3.45;;
22144;SDS011;11238;48.730;11.566;2023-08-24T09:06:17;7.85;;;3.47;;
22144;SDS011;11238;48.730;11.566;2023-08-24T09:08:43;4.60;;;3.55;;
22144;SDS011;11238;48.730;11.566;2023-08-24T09:11:10;6.75;;;3.97;;
22144;SDS011;11238;48.730;11.566;2023-08-24T09:13:35;4.97;;;3.60;;
22144;SDS011;11238;48.730;11.566;2023-08-24T09:16:07;5.32;;;3.65;;
22144;SDS011;11238;48.730;11.566;2023-08-24T09:18:37;8.43;;;4.00;;
22144;SDS011;11238;48.730;11.566;2023-08-24T09:21:11;5.05;;;3.55;;
22144;SDS011;11238;48.730;11.566;2023-08-24T09:23:51;4.38;;;3.42;;
22144;SDS011;11238;48.730;11.566;2023-08-24T09:26:28;9.02;;;3.47;;
22144;SDS011;11238;48.730;11.566;2023-08-24T09:28:59;8.02;;;3.42;;
22144;SDS011;11238;48.730;11.566;2023-08-24T09:31:34;7.60;;;3.63;;
22144;SDS011;11238;48.730;11.566;2023-08-24T09:34:02;6.60;;;3.60;;
22144;SDS011;11238;48.730;11.566;2023-08-24T09:36:32;5.10;;;3.17;;
22144;SDS011;11238;48.730;11.566;2023-08-24T09:38:59;6.43;;;3.42;;
22144;SDS011;11238;48.730;11.566;2023-08-24T09:41:45;7.70;;;3.25;;
22144;SDS011;11238;48.730;11.566;2023-08-24T09:44:12;9.43;;;3.70;;
22144;SDS011;11238;48.730;11.566;2023-08-24T09:46:41;10.10;;;3.70;;
22144;SDS011;11238;48.730;11.566;2023-08-24T09:49:08;5.72;;;3.30;;
22144;SDS011;11238;48.730;11.566;2023-08-24T09:51:35;4.88;;;3.58;;
22144;SDS011;11238;48.730;11.566;2023-08-24T09:54:06;3.65;;;3.30;;
22144;SDS011;11238;48.730;11.566;2023-08-24T09:56:40;4.25;;;3.28;;
22144;SDS011;11238;48.730;11.566;2023-08-24T09:59:10;6.82;;;3.60;;
22144;SDS011;11238;48.730;11.566;2023-08-24T10:01:40;5.82;;;3.55;;
22144;SDS011;11238;48.730;11.566;2023-08-24T10:04:07;5.75;;;4.05;;
22144;SDS011;11238;48.730;11.566;2023-08-24T10:06:35;4.63;;;3.72;;
22144;SDS011;11238;48.730;11.566;2023-08-24T10:09:02;7.07;;;3.60;;
22144;SDS011;11238;48.730;11.566;2023-08-24T10:11:34;8.20;;;3.40;;
22144;SDS011;11238;48.730;11.566;2023-08-24T10:14:19;11.05;;;3.65;;
22144;SDS011;11238;48.730;11.566;2023-08-24T10:16:51;4.85;;;3.40;;
22144;SDS011;11238;48.730;11.566;2023-08-24T10:19:18;4.93;;;3.13;;
22144;SDS011;11238;48.730;11.566;2023-08-24T10:21:47;5.70;;;3.47;;
22144;SDS011;11238;48.730;11.566;2023-08-24T10:24:16;6.38;;;3.10;;
22144;SDS011;11238;48.730;11.566;2023-08-24T10:26:42;5.63;;;3.55;;
22144;SDS011;11238;48.730;11.566;2023-08-24T10:29:08;5.22;;;3.38;;
22144;SDS011;11238;48.730;11.566;2023-08-24T10:31:35;5.18;;;3.33;;
22144;SDS011;11238;48.730;11.566;2023-08-24T10:34:03;10.75;;;3.30;;
22144;SDS011;11238;48.730;11.566;2023-08-24T10:36:31;3.50;;;2.88;;
22144;SDS011;11238;48.730;11.566;2023-08-24T10:38:57;4.85;;;3.08;;
22144;SDS011;11238;48.730;11.566;2023-08-24T10:41:45;7.00;;;3.38;;
22144;SDS011;11238;48.730;11.566;2023-08-24T10:44:19;8.20;;;3.55;;
22144;SDS011;11238;48.730;11.566;2023-08-24T10:49:32;4.35;;;3.10;;
22144;SDS011;11238;48.730;11.566;2023-08-24T10:51:58;5.85;;;3.17;;
22144;SDS011;11238;48.730;11.566;2023-08-24T10:54:44;9.27;;;4.05;;
22144;SDS011;11238;48.730;11.566;2023-08-24T10:57:26;5.55;;;3.33;;
22144;SDS011;11238;48.730;11.566;2023-08-24T11:00:02;7.85;;;3.22;;
22144;SDS011;11238;48.730;11.566;2023-08-24T11:02:45;4.40;;;3.22;;
22144;SDS011;11238;48.730;11.566;2023-08-24T11:10:16;5.03;;;3.28;;
22144;SDS011;11238;48.730;11.566;2023-08-24T11:15:49;4.10;;;3.22;;
22144;SDS011;11238;48.730;11.566;2023-08-24T11:18:24;3.47;;;3.03;;
22144;SDS011;11238;48.730;11.566;2023-08-24T11:20:55;7.03;;;3.42;;
22144;SDS011;11238;48.730;11.566;2023-08-24T11:23:22;5.45;;;3.50;;
22144;SDS011;11238;48.730;11.566;2023-08-24T11:25:50;5.15;;;3.30;;
22144;SDS011;11238;48.730;11.566;2023-08-24T11:28:20;8.52;;;3.55;;
22144;SDS011;11238;48.730;11.566;2023-08-24T11:30:47;5.40;;;3.47;;
22144;SDS011;11238;48.730;11.566;2023-08-24T11:33:13;5.82;;;3.22;;
22144;SDS011;11238;48.730;11.566;2023-08-24T11:35:41;5.00;;;3.00;;
22144;SDS011;11238;48.730;11.566;2023-08-24T11:38:08;8.70;;;3.65;;
22144;SDS011;11238;48.730;11.566;2023-08-24T11:40:34;4.80;;;3.40;;
22144;SDS011;11238;48.730;11.566;2023-08-24T11:42:59;4.68;;;3.30;;
22144;SDS011;11238;48.730;11.566;2023-08-24T11:45:29;4.18;;;3.10;;
22144;SDS011;11238;48.730;11.566;2023-08-24T11:47:58;6.20;;;3.17;;
22144;SDS011;11238;48.730;11.566;2023-08-24T11:50:27;5.70;;;3.95;;
22144;SDS011;11238;48.730;11.566;2023-08-24T11:52:54;6.20;;;3.50;;
22144;SDS011;11238;48.730;11.566;2023-08-24T11:55:23;5.45;;;3.25;;
22144;SDS011;11238;48.730;11.566;2023-08-24T11:57:49;7.47;;;3.83;;
22144;SDS011;11238;48.730;11.566;2023-08-24T12:00:19;4.25;;;3.45;;
22144;SDS011;11238;48.730;11.566;2023-08-24T12:02:47;5.82;;;3.35;;
22144;SDS011;11238;48.730;11.566;2023-08-24T12:05:23;6.22;;;3.80;;
22144;SDS011;11238;48.730;11.566;2023-08-24T12:07:53;5.38;;;3.53;;
22144;SDS011;11238;48.730;11.566;2023-08-24T12:10:20;7.40;;;3.60;;
22144;SDS011;11238;48.730;11.566;2023-08-24T12:12:46;5.10;;;3.42;;
22144;SDS011;11238;48.730;11.566;2023-08-24T12:15:15;5.43;;;3.33;;
22144;SDS011;11238;48.730;11.566;2023-08-24T12:17:43;4.20;;;3.40;;
22144;SDS011;11238;48.730;11.566;2023-08-24T12:20:16;4.20;;;3.42;;
22144;SDS011;11238;48.730;11.566;2023-08-24T12:22:43;5.18;;;3.63;;
22144;SDS011;11238;48.730;11.566;2023-08-24T12:25:09;5.88;;;3.58;;
22144;SDS011;11238;48.730;11.566;2023-08-24T12:27:36;6.85;;;3.75;;
22144;SDS011;11238;48.730;11.566;2023-08-24T12:30:02;6.05;;;3.42;;
22144;SDS011;11238;48.730;11.566;2023-08-24T12:32:41;8.63;;;3.47;;
22144;SDS011;11238;48.730;11.566;2023-08-24T12:35:08;5.82;;;3.35;;
22144;SDS011;11238;48.730;11.566;2023-08-24T12:37:35;6.22;;;3.58;;
22144;SDS011;11238;48.730;11.566;2023-08-24T12:40:01;13.40;;;3.60;;
22144;SDS011;11238;48.730;11.566;2023-08-24T12:42:51;6.25;;;3.63;;
22144;SDS011;11238;48.730;11.566;2023-08-24T12:45:17;8.13;;;3.75;;
22144;SDS011;11238;48.730;11.566;2023-08-24T12:47:43;4.78;;;3.28;;
22144;SDS011;11238;48.730;11.566;2023-08-24T12:50:09;6.65;;;3.50;;
22144;SDS011;11238;48.730;11.566;2023-08-24T12:52:34;9.18;;;3.33;;
22144;SDS011;11238;48.730;11.566;2023-08-24T12:55:01;6.85;;;3.95;;
22144;SDS011;11238;48.730;11.566;2023-08-24T12:57:28;7.65;;;3.38;;
22144;SDS011;11238;48.730;11.566;2023-08-24T12:59:54;8.23;;;3.70;;
22144;SDS011;11238;48.730;11.566;2023-08-24T13:02:20;10.65;;;3.97;;
22144;SDS011;11238;48.730;11.566;2023-08-24T13:04:46;4.20;;;3.13;;
22144;SDS011;11238;48.730;11.566;2023-08-24T13:07:11;6.40;;;3.53;;
22144;SDS011;11238;48.730;11.566;2023-08-24T13:09:37;7.70;;;3.40;;
22144;SDS011;11238;48.730;11.566;2023-08-24T13:12:03;9.40;;;3.72;;
22144;SDS011;11238;48.730;11.566;2023-08-24T13:14:29;6.35;;;3.40;;
22144;SDS011;11238;48.730;11.566;2023-08-24T13:16:54;8.88;;;3.42;;
22144;SDS011;11238;48.730;11.566;2023-08-24T13:19:21;9.52;;;3.95;;
22144;SDS011;11238;48.730;11.566;2023-08-24T13:21:46;6.22;;;3.50;;
22144;SDS011;11238;48.730;11.566;2023-08-24T13:24:13;4.72;;;3.00;;
22144;SDS011;11238;48.730;11.566;2023-08-24T13:26:42;7.35;;;3.38;;
22144;SDS011;11238;48.730;11.566;2023-08-24T13:29:08;7.05;;;3.40;;
22144;SDS011;11238;48.730;11.566;2023-08-24T13:31:34;6.93;;;3.22;;
22144;SDS011;11238;48.730;11.566;2023-08-24T13:34:00;6.32;;;3.40;;
22144;SDS011;11238;48.730;11.566;2023-08-24T13:36:30;7.75;;;3.25;;
22144;SDS011;11238;48.730;11.566;2023-08-24T13:38:55;8.10;;;3.30;;
22144;SDS011;11238;48.730;11.566;2023-08-24T13:41:21;6.25;;;3.30;;
22144;SDS011;11238;48.730;11.566;2023-08-24T13:43:47;5.78;;;3.10;;
22144;SDS011;11238;48.730;11.566;2023-08-24T13:46:13;5.63;;;3.33;;
22144;SDS011;11238;48.730;11.566;2023-08-24T13:48:39;6.88;;;3.28;;
22144;SDS011;11238;48.730;11.566;2023-08-24T13:51:05;6.50;;;3.30;;
22144;SDS011;11238;48.730;11.566;2023-08-24T13:53:31;6.55;;;3.20;;
22144;SDS011;11238;48.730;11.566;2023-08-24T13:55:56;8.50;;;3.63;;
22144;SDS011;11238;48.730;11.566;2023-08-24T13:58:22;6.78;;;3.20;;
22144;SDS011;11238;48.730;11.566;2023-08-24T14:00:54;9.13;;;3.30;;
22144;SDS011;11238;48.730;11.566;2023-08-24T14:03:20;5.57;;;3.22;;
22144;SDS011;11238;48.730;11.566;2023-08-24T14:05:46;5.75;;;3.42;;
22144;SDS011;11238;48.730;11.566;2023-08-24T14:08:15;5.22;;;3.55;;
22144;SDS011;11238;48.730;11.566;2023-08-24T14:10:40;8.18;;;3.17;;
22144;SDS011;11238;48.730;11.566;2023-08-24T14:13:06;5.63;;;3.05;;
22144;SDS011;11238;48.730;11.566;2023-08-24T14:15:32;6.20;;;3.60;;
22144;SDS011;11238;48.730;11.566;2023-08-24T14:17:58;8.35;;;3.30;;
22144;SDS011;11238;48.730;11.566;2023-08-24T14:20:23;8.38;;;3.17;;
22144;SDS011;11238;48.730;11.566;2023-08-24T14:22:50;8.38;;;3.45;;
22144;SDS011;11238;48.730;11.566;2023-08-24T14:25:15;5.45;;;3.53;;
22144;SDS011;11238;48.730;11.566;2023-08-24T14:27:41;8.52;;;3.58;;
22144;SDS011;11238;48.730;11.566;2023-08-24T14:30:07;8.25;;;3.25;;
22144;SDS011;11238;48.730;11.566;2023-08-24T14:32:33;6.93;;;3.63;;
22144;SDS011;11238;48.730;11.566;2023-08-24T14:34:59;4.32;;;3.00;;
22144;SDS011;11238;48.730;11.566;2023-08-24T14:37:25;11.73;;;3.67;;
22144;SDS011;11238;48.730;11.566;2023-08-24T14:39:51;6.18;;;3.53;;
22144;SDS011;11238;48.730;11.566;2023-08-24T14:42:16;9.50;;;3.50;;
22144;SDS011;11238;48.730;11.566;2023-08-24T14:44:42;11.07;;;3.30;;
22144;SDS011;11238;48.730;11.566;2023-08-24T14:47:09;8.90;;;3.30;;
22144;SDS011;11238;48.730;11.566;2023-08-24T14:49:34;10.98;;;3.83;;
22144;SDS011;11238;48.730;11.566;2023-08-24T14:52:00;6.63;;;3.20;;